NOZ56MG ENGM-EDDM
Flight info
| Callsign | NOZ56MG |
|---|---|
| Flight time | 1h 55m |
| Altitude | 37000 |
| Route | VIPPA DCT ESOSI DCT SONAL DCT UNRIG DCT OSKAN DCT MAREM/N0441F380 DCT YUJKI DCT VESUB/N0436F340 T106 TUSTO T108 LANDU LANDU2A |
| Aircraft | B738/M-SDE2E3FGHIRWXY/LB1 |
Departure
| Time | 2026-05-01 09:57 |
|---|---|
| Airport | Oslo-Gardermoen International Airport (ENGM) |
Arrival
| Time | 2026-05-01 11:52 |
|---|---|
| Airport | Munich Airport (EDDM) |
| Time | Latitude | Longitude | Altitude | Speed | Heading |
|---|---|---|---|---|---|
| 2026-05-01 09:16 | 60.19632 | 11.09952 | 684 ft | 0 kts | 106° |
| 2026-05-01 09:46 | 60.19633 | 11.09941 | 684 ft | 4 kts | 106° |
| 2026-05-01 09:47 | 60.19640 | 11.09895 | 678 ft | 4 kts | 106° |
| 2026-05-01 09:47 | 60.19645 | 11.09863 | 682 ft | 0 kts | 106° |
| 2026-05-01 09:50 | 60.19644 | 11.09863 | 682 ft | 0 kts | 106° |
| 2026-05-01 09:50 | 60.19646 | 11.09868 | 681 ft | 0 kts | 75° |
| 2026-05-01 09:50 | 60.19651 | 11.09870 | 678 ft | 1 kts | 10° |
| 2026-05-01 09:51 | 60.19654 | 11.09852 | 679 ft | 2 kts | 279° |
| 2026-05-01 09:51 | 60.19659 | 11.09792 | 682 ft | 6 kts | 288° |
| 2026-05-01 09:51 | 60.19698 | 11.09761 | 683 ft | 7 kts | 13° |
| 2026-05-01 09:51 | 60.19748 | 11.09789 | 683 ft | 8 kts | 16° |
| 2026-05-01 09:52 | 60.19803 | 11.09821 | 683 ft | 9 kts | 16° |
| 2026-05-01 09:52 | 60.19876 | 11.09863 | 682 ft | 13 kts | 16° |
| 2026-05-01 09:52 | 60.19953 | 11.09908 | 681 ft | 9 kts | 21° |
| 2026-05-01 09:52 | 60.19970 | 11.10021 | 684 ft | 9 kts | 103° |
| 2026-05-01 09:53 | 60.19950 | 11.10162 | 683 ft | 12 kts | 106° |
| 2026-05-01 09:53 | 60.19923 | 11.10347 | 678 ft | 14 kts | 106° |
| 2026-05-01 09:53 | 60.19896 | 11.10533 | 683 ft | 14 kts | 106° |
| 2026-05-01 09:53 | 60.19871 | 11.10711 | 683 ft | 13 kts | 105° |
| 2026-05-01 09:54 | 60.19847 | 11.10883 | 682 ft | 13 kts | 106° |
| 2026-05-01 09:54 | 60.19823 | 11.11051 | 678 ft | 12 kts | 106° |
| 2026-05-01 09:54 | 60.19799 | 11.11214 | 681 ft | 12 kts | 107° |
| 2026-05-01 09:54 | 60.19773 | 11.11364 | 679 ft | 11 kts | 115° |
| 2026-05-01 09:55 | 60.19741 | 11.11495 | 682 ft | 10 kts | 111° |
| 2026-05-01 09:55 | 60.19720 | 11.11635 | 681 ft | 10 kts | 106° |
| 2026-05-01 09:55 | 60.19699 | 11.11777 | 682 ft | 11 kts | 111° |
| 2026-05-01 09:55 | 60.19653 | 11.11889 | 678 ft | 10 kts | 132° |
| 2026-05-01 09:56 | 60.19599 | 11.11943 | 683 ft | 9 kts | 183° |
| 2026-05-01 09:56 | 60.19579 | 11.11935 | 683 ft | 2 kts | 194° |
| 2026-05-01 09:56 | 60.19394 | 11.11829 | 682 ft | 64 kts | 196° |
| 2026-05-01 09:56 | 60.18738 | 11.11449 | 683 ft | 130 kts | 196° |
| 2026-05-01 09:57 | 60.17718 | 11.10884 | 949 ft | 161 kts | 196° |
| 2026-05-01 09:57 | 60.16644 | 11.10271 | 1841 ft | 157 kts | 198° |
| 2026-05-01 09:57 | 60.15587 | 11.09676 | 2704 ft | 161 kts | 199° |
| 2026-05-01 09:57 | 60.14441 | 11.09041 | 3280 ft | 183 kts | 199° |
| 2026-05-01 09:58 | 60.13136 | 11.08289 | 3625 ft | 211 kts | 197° |
| 2026-05-01 09:58 | 60.11585 | 11.07816 | 3912 ft | 234 kts | 189° |
| 2026-05-01 09:58 | 60.09941 | 11.07491 | 4363 ft | 250 kts | 190° |
| 2026-05-01 09:58 | 60.08139 | 11.07115 | 4934 ft | 263 kts | 190° |
| 2026-05-01 09:59 | 60.06338 | 11.06742 | 5914 ft | 262 kts | 191° |
| 2026-05-01 09:59 | 60.04567 | 11.06009 | 6877 ft | 258 kts | 202° |
| 2026-05-01 09:59 | 60.02867 | 11.04814 | 7723 ft | 261 kts | 205° |
| 2026-05-01 09:59 | 60.01163 | 11.03519 | 8617 ft | 263 kts | 205° |
| 2026-05-01 10:00 | 59.99446 | 11.02207 | 9483 ft | 267 kts | 205° |
| 2026-05-01 10:00 | 59.97688 | 11.00879 | 10298 ft | 272 kts | 205° |
| 2026-05-01 10:00 | 59.95878 | 10.99523 | 10787 ft | 288 kts | 206° |
| 2026-05-01 10:00 | 59.93924 | 10.98011 | 10986 ft | 313 kts | 206° |
| 2026-05-01 10:01 | 59.91848 | 10.96386 | 11504 ft | 325 kts | 206° |
| 2026-05-01 10:01 | 59.89730 | 10.94734 | 12258 ft | 329 kts | 206° |
| 2026-05-01 10:01 | 59.87594 | 10.93076 | 13104 ft | 330 kts | 206° |
| 2026-05-01 10:01 | 59.85475 | 10.91435 | 13898 ft | 333 kts | 207° |
| 2026-05-01 10:02 | 59.83298 | 10.89751 | 14614 ft | 337 kts | 207° |
| 2026-05-01 10:02 | 59.81109 | 10.88060 | 15350 ft | 339 kts | 207° |
| 2026-05-01 10:02 | 59.78902 | 10.86359 | 16066 ft | 341 kts | 207° |
| 2026-05-01 10:02 | 59.76679 | 10.84647 | 16758 ft | 345 kts | 207° |
| 2026-05-01 10:03 | 59.74430 | 10.82917 | 17467 ft | 348 kts | 207° |
| 2026-05-01 10:03 | 59.72167 | 10.81181 | 18134 ft | 350 kts | 206° |
| 2026-05-01 10:03 | 59.69880 | 10.79429 | 18768 ft | 354 kts | 206° |
| 2026-05-01 10:03 | 59.67573 | 10.77662 | 19330 ft | 358 kts | 206° |
| 2026-05-01 10:04 | 59.65236 | 10.75875 | 19898 ft | 361 kts | 206° |
| 2026-05-01 10:04 | 59.62913 | 10.74101 | 20450 ft | 365 kts | 206° |
| 2026-05-01 10:04 | 59.60527 | 10.72284 | 21008 ft | 369 kts | 206° |
| 2026-05-01 10:04 | 59.58129 | 10.70459 | 21544 ft | 372 kts | 206° |
| 2026-05-01 10:05 | 59.55697 | 10.68612 | 22079 ft | 376 kts | 206° |
| 2026-05-01 10:05 | 59.53246 | 10.66753 | 22608 ft | 379 kts | 206° |
| 2026-05-01 10:05 | 59.50770 | 10.64878 | 23125 ft | 383 kts | 206° |
| 2026-05-01 10:05 | 59.48269 | 10.62987 | 23636 ft | 387 kts | 206° |
| 2026-05-01 10:06 | 59.45747 | 10.61083 | 24091 ft | 390 kts | 206° |
| 2026-05-01 10:06 | 59.43200 | 10.59163 | 24432 ft | 395 kts | 205° |
| 2026-05-01 10:06 | 59.40620 | 10.57222 | 24833 ft | 398 kts | 205° |
| 2026-05-01 10:06 | 59.38023 | 10.55272 | 25285 ft | 400 kts | 205° |
| 2026-05-01 10:07 | 59.35417 | 10.53320 | 25715 ft | 402 kts | 205° |
| 2026-05-01 10:07 | 59.32792 | 10.51355 | 26108 ft | 405 kts | 205° |
| 2026-05-01 10:07 | 59.30153 | 10.49383 | 26475 ft | 408 kts | 205° |
| 2026-05-01 10:07 | 59.27496 | 10.47399 | 26879 ft | 410 kts | 205° |
| 2026-05-01 10:08 | 59.22135 | 10.43409 | 27647 ft | 415 kts | 205° |
| 2026-05-01 10:08 | 59.19419 | 10.41392 | 28028 ft | 418 kts | 205° |
| 2026-05-01 10:08 | 59.16728 | 10.39397 | 28347 ft | 421 kts | 204° |
| 2026-05-01 10:09 | 59.13982 | 10.37365 | 28658 ft | 424 kts | 204° |
| 2026-05-01 10:09 | 59.11218 | 10.35323 | 29017 ft | 426 kts | 204° |
| 2026-05-01 10:09 | 59.08442 | 10.33277 | 29377 ft | 428 kts | 204° |
| 2026-05-01 10:09 | 59.05654 | 10.31224 | 29706 ft | 430 kts | 204° |
| 2026-05-01 10:10 | 59.02842 | 10.29156 | 30019 ft | 432 kts | 204° |
| 2026-05-01 10:10 | 59.00023 | 10.27087 | 30325 ft | 435 kts | 204° |
| 2026-05-01 10:10 | 58.94194 | 10.23676 | 30831 ft | 444 kts | 192° |
| 2026-05-01 10:11 | 58.91100 | 10.23168 | 31099 ft | 450 kts | 182° |
| 2026-05-01 10:11 | 58.87962 | 10.23492 | 31409 ft | 452 kts | 179° |
| 2026-05-01 10:11 | 58.84833 | 10.23954 | 31760 ft | 451 kts | 179° |
| 2026-05-01 10:11 | 58.81705 | 10.24420 | 32134 ft | 450 kts | 179° |
| 2026-05-01 10:12 | 58.78584 | 10.24859 | 32497 ft | 449 kts | 179° |
| 2026-05-01 10:12 | 58.76522 | 10.25134 | 32714 ft | 448 kts | 180° |
| 2026-05-01 10:12 | 58.69267 | 10.26045 | 33499 ft | 446 kts | 180° |
| 2026-05-01 10:13 | 58.66161 | 10.26428 | 33839 ft | 445 kts | 180° |
| 2026-05-01 10:13 | 58.63071 | 10.26809 | 34165 ft | 445 kts | 180° |
| 2026-05-01 10:13 | 58.61027 | 10.27064 | 34353 ft | 444 kts | 179° |
| 2026-05-01 10:14 | 58.54984 | 10.29631 | 34895 ft | 450 kts | 162° |
| 2026-05-01 10:14 | 58.52072 | 10.31832 | 35141 ft | 450 kts | 161° |
| 2026-05-01 10:14 | 58.49160 | 10.34076 | 35364 ft | 451 kts | 161° |
| 2026-05-01 10:14 | 58.46258 | 10.36312 | 35601 ft | 450 kts | 161° |
| 2026-05-01 10:15 | 58.43345 | 10.38537 | 35870 ft | 449 kts | 161° |
| 2026-05-01 10:15 | 58.40441 | 10.40733 | 36125 ft | 449 kts | 161° |
| 2026-05-01 10:15 | 58.37534 | 10.42913 | 36346 ft | 449 kts | 162° |
| 2026-05-01 10:15 | 58.34624 | 10.45080 | 36569 ft | 449 kts | 162° |
| 2026-05-01 10:16 | 58.31712 | 10.47240 | 36802 ft | 448 kts | 162° |
| 2026-05-01 10:16 | 58.28805 | 10.49389 | 37038 ft | 448 kts | 162° |
| 2026-05-01 10:16 | 58.22989 | 10.53676 | 37315 ft | 451 kts | 162° |
| 2026-05-01 10:17 | 58.20057 | 10.55830 | 37317 ft | 452 kts | 162° |
| 2026-05-01 10:17 | 58.11306 | 10.62247 | 37331 ft | 450 kts | 162° |
| 2026-05-01 10:18 | 58.02565 | 10.68624 | 37327 ft | 448 kts | 161° |
| 2026-05-01 10:19 | 57.96759 | 10.72839 | 37338 ft | 446 kts | 161° |
| 2026-05-01 10:19 | 57.90973 | 10.77026 | 37352 ft | 445 kts | 162° |
| 2026-05-01 10:20 | 57.82297 | 10.83276 | 37352 ft | 445 kts | 161° |
| 2026-05-01 10:20 | 57.76511 | 10.87427 | 37354 ft | 445 kts | 162° |
| 2026-05-01 10:21 | 57.67854 | 10.93609 | 37363 ft | 446 kts | 160° |
| 2026-05-01 10:22 | 57.59138 | 10.99804 | 37364 ft | 447 kts | 161° |
| 2026-05-01 10:23 | 57.50403 | 11.05981 | 37365 ft | 448 kts | 161° |
| 2026-05-01 10:23 | 57.41642 | 11.12144 | 37363 ft | 449 kts | 160° |
| 2026-05-01 10:24 | 57.29956 | 11.20315 | 37378 ft | 448 kts | 160° |
| 2026-05-01 10:25 | 57.18274 | 11.28427 | 37377 ft | 447 kts | 160° |
| 2026-05-01 10:26 | 57.12447 | 11.32453 | 37373 ft | 447 kts | 160° |
| 2026-05-01 10:27 | 57.00854 | 11.40423 | 37387 ft | 446 kts | 160° |
| 2026-05-01 10:28 | 56.92136 | 11.46382 | 37396 ft | 445 kts | 160° |
| 2026-05-01 10:28 | 56.83427 | 11.52304 | 37387 ft | 445 kts | 160° |
| 2026-05-01 10:29 | 56.74715 | 11.58200 | 37391 ft | 445 kts | 160° |
| 2026-05-01 10:30 | 56.63100 | 11.66015 | 37409 ft | 445 kts | 160° |
| 2026-05-01 10:31 | 56.51451 | 11.73800 | 37404 ft | 446 kts | 160° |
| 2026-05-01 10:32 | 56.42734 | 11.79593 | 37394 ft | 447 kts | 160° |
| 2026-05-01 10:33 | 56.31028 | 11.87328 | 37415 ft | 448 kts | 160° |
| 2026-05-01 10:34 | 56.22234 | 11.93106 | 37420 ft | 449 kts | 160° |
| 2026-05-01 10:34 | 56.16367 | 11.96945 | 37416 ft | 449 kts | 160° |
| 2026-05-01 10:35 | 56.07556 | 12.02686 | 37417 ft | 449 kts | 160° |
| 2026-05-01 10:35 | 56.01668 | 12.06508 | 37411 ft | 450 kts | 160° |
| 2026-05-01 10:36 | 55.92832 | 12.12219 | 37424 ft | 451 kts | 160° |
| 2026-05-01 10:37 | 55.86921 | 12.16024 | 37408 ft | 452 kts | 160° |
| 2026-05-01 10:37 | 55.78086 | 12.21690 | 37420 ft | 452 kts | 160° |
| 2026-05-01 10:38 | 55.72168 | 12.25469 | 37411 ft | 452 kts | 160° |
| 2026-05-01 10:38 | 55.66247 | 12.29237 | 37404 ft | 452 kts | 160° |
| 2026-05-01 10:39 | 55.60328 | 12.32993 | 37413 ft | 452 kts | 160° |
| 2026-05-01 10:39 | 55.54411 | 12.36735 | 37419 ft | 451 kts | 160° |
| 2026-05-01 10:40 | 55.48498 | 12.40463 | 37407 ft | 451 kts | 160° |
| 2026-05-01 10:40 | 55.42592 | 12.44174 | 37412 ft | 450 kts | 160° |
| 2026-05-01 10:41 | 55.36696 | 12.47868 | 37426 ft | 449 kts | 160° |
| 2026-05-01 10:42 | 55.27871 | 12.53375 | 37423 ft | 448 kts | 160° |
| 2026-05-01 10:42 | 55.21990 | 12.57030 | 37425 ft | 448 kts | 160° |
| 2026-05-01 10:43 | 55.16115 | 12.60670 | 37411 ft | 448 kts | 160° |
| 2026-05-01 10:43 | 55.10237 | 12.64301 | 37421 ft | 448 kts | 160° |
| 2026-05-01 10:44 | 55.04356 | 12.67923 | 37412 ft | 448 kts | 160° |
| 2026-05-01 10:44 | 54.98467 | 12.71538 | 37425 ft | 449 kts | 160° |
| 2026-05-01 10:45 | 54.92575 | 12.75146 | 37416 ft | 450 kts | 160° |
| 2026-05-01 10:45 | 54.86656 | 12.78529 | 37411 ft | 451 kts | 168° |
| 2026-05-01 10:46 | 54.80479 | 12.80374 | 37416 ft | 451 kts | 171° |
| 2026-05-01 10:46 | 54.74261 | 12.82029 | 37412 ft | 452 kts | 171° |
| 2026-05-01 10:47 | 54.68041 | 12.83742 | 37431 ft | 453 kts | 171° |
| 2026-05-01 10:47 | 54.61820 | 12.85507 | 37419 ft | 453 kts | 170° |
| 2026-05-01 10:48 | 54.55598 | 12.87288 | 37414 ft | 453 kts | 170° |
| 2026-05-01 10:48 | 54.49375 | 12.89066 | 37413 ft | 453 kts | 170° |
| 2026-05-01 10:49 | 54.43152 | 12.90836 | 37425 ft | 453 kts | 170° |
| 2026-05-01 10:49 | 54.36944 | 12.92596 | 37413 ft | 453 kts | 170° |
| 2026-05-01 10:50 | 54.30728 | 12.94352 | 37426 ft | 452 kts | 170° |
| 2026-05-01 10:50 | 54.24522 | 12.96100 | 37427 ft | 452 kts | 170° |
| 2026-05-01 10:51 | 54.18356 | 12.97831 | 37421 ft | 452 kts | 170° |
| 2026-05-01 10:51 | 54.12145 | 12.99569 | 37429 ft | 452 kts | 170° |
| 2026-05-01 10:52 | 54.05929 | 13.01304 | 37412 ft | 452 kts | 170° |
| 2026-05-01 10:52 | 53.99718 | 13.03032 | 37419 ft | 452 kts | 170° |
| 2026-05-01 10:53 | 53.93498 | 13.04758 | 37416 ft | 452 kts | 170° |
| 2026-05-01 10:53 | 53.87282 | 13.06477 | 37413 ft | 452 kts | 170° |
| 2026-05-01 10:54 | 53.81063 | 13.08192 | 37402 ft | 453 kts | 170° |
| 2026-05-01 10:54 | 53.74884 | 13.09890 | 37422 ft | 453 kts | 170° |
| 2026-05-01 10:55 | 53.68662 | 13.11596 | 37414 ft | 453 kts | 170° |
| 2026-05-01 10:55 | 53.62445 | 13.13295 | 37422 ft | 453 kts | 170° |
| 2026-05-01 10:56 | 53.56215 | 13.14992 | 37407 ft | 454 kts | 170° |
| 2026-05-01 10:56 | 53.49973 | 13.16688 | 37425 ft | 454 kts | 170° |
| 2026-05-01 10:57 | 53.43735 | 13.18377 | 37410 ft | 454 kts | 170° |
| 2026-05-01 10:57 | 53.37495 | 13.20062 | 37407 ft | 455 kts | 170° |
| 2026-05-01 10:58 | 53.31245 | 13.21745 | 37411 ft | 455 kts | 170° |
| 2026-05-01 10:58 | 53.24996 | 13.23422 | 37404 ft | 455 kts | 170° |
| 2026-05-01 10:59 | 53.18755 | 13.25093 | 37408 ft | 454 kts | 170° |
| 2026-05-01 10:59 | 53.12545 | 13.26750 | 37410 ft | 454 kts | 170° |
| 2026-05-01 11:00 | 53.06302 | 13.28411 | 37406 ft | 454 kts | 170° |
| 2026-05-01 11:00 | 53.00058 | 13.30067 | 37437 ft | 454 kts | 170° |
| 2026-05-01 11:01 | 52.93806 | 13.31721 | 37413 ft | 455 kts | 170° |
| 2026-05-01 11:01 | 52.87547 | 13.33372 | 37410 ft | 456 kts | 170° |
| 2026-05-01 11:02 | 52.81285 | 13.35018 | 37409 ft | 456 kts | 170° |
| 2026-05-01 11:02 | 52.76075 | 13.36385 | 37417 ft | 456 kts | 170° |
| 2026-05-01 11:03 | 52.69796 | 13.38027 | 37407 ft | 457 kts | 170° |
| 2026-05-01 11:03 | 52.63518 | 13.39665 | 37419 ft | 457 kts | 170° |
| 2026-05-01 11:04 | 52.57221 | 13.41302 | 37418 ft | 457 kts | 170° |
| 2026-05-01 11:04 | 52.50935 | 13.42932 | 37422 ft | 458 kts | 170° |
| 2026-05-01 11:05 | 52.44680 | 13.44549 | 37428 ft | 458 kts | 170° |
| 2026-05-01 11:05 | 52.38388 | 13.46171 | 37428 ft | 458 kts | 170° |
| 2026-05-01 11:06 | 52.32089 | 13.47791 | 37435 ft | 458 kts | 170° |
| 2026-05-01 11:06 | 52.25797 | 13.49404 | 37433 ft | 458 kts | 170° |
| 2026-05-01 11:07 | 52.16336 | 13.51820 | 37421 ft | 459 kts | 170° |
| 2026-05-01 11:07 | 52.10033 | 13.53424 | 37418 ft | 459 kts | 170° |
| 2026-05-01 11:08 | 52.03727 | 13.55025 | 37411 ft | 459 kts | 170° |
| 2026-05-01 11:09 | 51.94251 | 13.57422 | 37412 ft | 459 kts | 170° |
| 2026-05-01 11:09 | 51.87931 | 13.59015 | 37416 ft | 459 kts | 170° |
| 2026-05-01 11:10 | 51.78357 | 13.60197 | 37414 ft | 460 kts | 177° |
| 2026-05-01 11:10 | 51.71952 | 13.60618 | 37414 ft | 460 kts | 176° |
| 2026-05-01 11:11 | 51.65549 | 13.61127 | 37414 ft | 460 kts | 176° |
| 2026-05-01 11:11 | 51.59205 | 13.61674 | 37410 ft | 460 kts | 175° |
| 2026-05-01 11:12 | 51.52758 | 13.62231 | 37412 ft | 461 kts | 175° |
| 2026-05-01 11:12 | 51.46401 | 13.62774 | 37409 ft | 461 kts | 175° |
| 2026-05-01 11:13 | 51.39980 | 13.62993 | 37411 ft | 462 kts | 179° |
| 2026-05-01 11:13 | 51.33511 | 13.62899 | 37410 ft | 462 kts | 179° |
| 2026-05-01 11:14 | 51.27072 | 13.62836 | 37424 ft | 462 kts | 179° |
| 2026-05-01 11:14 | 51.20685 | 13.62828 | 37427 ft | 463 kts | 178° |
| 2026-05-01 11:15 | 51.14243 | 13.62839 | 37427 ft | 463 kts | 178° |
| 2026-05-01 11:15 | 51.07793 | 13.62851 | 37430 ft | 463 kts | 178° |
| 2026-05-01 11:16 | 51.01344 | 13.62860 | 37422 ft | 463 kts | 178° |
| 2026-05-01 11:16 | 50.94887 | 13.62869 | 37420 ft | 464 kts | 178° |
| 2026-05-01 11:17 | 50.88437 | 13.62878 | 37419 ft | 464 kts | 178° |
| 2026-05-01 11:17 | 50.81972 | 13.62886 | 37412 ft | 464 kts | 178° |
| 2026-05-01 11:18 | 50.75517 | 13.62895 | 37408 ft | 464 kts | 178° |
| 2026-05-01 11:18 | 50.69049 | 13.62489 | 37407 ft | 466 kts | 187° |
| 2026-05-01 11:19 | 50.62698 | 13.60759 | 37400 ft | 466 kts | 189° |
| 2026-05-01 11:19 | 50.56306 | 13.59015 | 37406 ft | 466 kts | 188° |
| 2026-05-01 11:20 | 50.49916 | 13.57386 | 37407 ft | 465 kts | 188° |
| 2026-05-01 11:20 | 50.43608 | 13.55094 | 37415 ft | 466 kts | 198° |
| 2026-05-01 11:21 | 50.37500 | 13.51634 | 37413 ft | 466 kts | 199° |
| 2026-05-01 11:21 | 50.31407 | 13.48138 | 37413 ft | 466 kts | 199° |
| 2026-05-01 11:22 | 50.25290 | 13.44719 | 37408 ft | 467 kts | 199° |
| 2026-05-01 11:22 | 50.19166 | 13.41352 | 37413 ft | 467 kts | 199° |
| 2026-05-01 11:23 | 50.13075 | 13.38022 | 37418 ft | 467 kts | 199° |
| 2026-05-01 11:23 | 50.06947 | 13.34678 | 37409 ft | 467 kts | 198° |
| 2026-05-01 11:24 | 50.00767 | 13.31313 | 37415 ft | 467 kts | 198° |
| 2026-05-01 11:25 | 49.91560 | 13.26315 | 37418 ft | 468 kts | 198° |
| 2026-05-01 11:25 | 49.82368 | 13.21346 | 37284 ft | 471 kts | 198° |
| 2026-05-01 11:26 | 49.79255 | 13.19668 | 36784 ft | 474 kts | 198° |
| 2026-05-01 11:26 | 49.73050 | 13.16329 | 35615 ft | 472 kts | 198° |
| 2026-05-01 11:26 | 49.69945 | 13.14662 | 35005 ft | 472 kts | 198° |
| 2026-05-01 11:27 | 49.66840 | 13.12996 | 34365 ft | 473 kts | 198° |
| 2026-05-01 11:27 | 49.63724 | 13.11328 | 33619 ft | 474 kts | 198° |
| 2026-05-01 11:27 | 49.60602 | 13.09658 | 33001 ft | 473 kts | 198° |
| 2026-05-01 11:27 | 49.57513 | 13.08008 | 32555 ft | 468 kts | 198° |
| 2026-05-01 11:28 | 49.54450 | 13.06373 | 32067 ft | 464 kts | 198° |
| 2026-05-01 11:28 | 49.51413 | 13.04755 | 31601 ft | 460 kts | 198° |
| 2026-05-01 11:28 | 49.48401 | 13.03152 | 31153 ft | 456 kts | 198° |
| 2026-05-01 11:29 | 49.42442 | 12.99986 | 30211 ft | 449 kts | 199° |
| 2026-05-01 11:29 | 49.39562 | 12.98186 | 29729 ft | 445 kts | 204° |
| 2026-05-01 11:29 | 49.34043 | 12.94067 | 28795 ft | 436 kts | 205° |
| 2026-05-01 11:30 | 49.31342 | 12.92024 | 28330 ft | 432 kts | 205° |
| 2026-05-01 11:30 | 49.28640 | 12.90020 | 27882 ft | 429 kts | 205° |
| 2026-05-01 11:30 | 49.25956 | 12.88059 | 27422 ft | 425 kts | 204° |
| 2026-05-01 11:30 | 49.23294 | 12.86127 | 26977 ft | 422 kts | 204° |
| 2026-05-01 11:31 | 49.20653 | 12.84215 | 26536 ft | 419 kts | 204° |
| 2026-05-01 11:31 | 49.18019 | 12.82307 | 26088 ft | 417 kts | 204° |
| 2026-05-01 11:31 | 49.15413 | 12.80421 | 25660 ft | 414 kts | 204° |
| 2026-05-01 11:31 | 49.12815 | 12.78540 | 25223 ft | 412 kts | 204° |
| 2026-05-01 11:32 | 49.10229 | 12.76671 | 24794 ft | 410 kts | 204° |
| 2026-05-01 11:32 | 49.07659 | 12.74816 | 24363 ft | 408 kts | 204° |
| 2026-05-01 11:32 | 49.05095 | 12.72972 | 23910 ft | 406 kts | 203° |
| 2026-05-01 11:32 | 49.02583 | 12.71170 | 23420 ft | 404 kts | 203° |
| 2026-05-01 11:33 | 49.00047 | 12.69354 | 22957 ft | 401 kts | 203° |
| 2026-05-01 11:33 | 48.97527 | 12.67550 | 22521 ft | 399 kts | 203° |
| 2026-05-01 11:33 | 48.95027 | 12.65762 | 22088 ft | 396 kts | 203° |
| 2026-05-01 11:33 | 48.92545 | 12.63989 | 21659 ft | 393 kts | 203° |
| 2026-05-01 11:34 | 48.90081 | 12.62231 | 21239 ft | 390 kts | 203° |
| 2026-05-01 11:34 | 48.87630 | 12.60488 | 20819 ft | 387 kts | 202° |
| 2026-05-01 11:34 | 48.85194 | 12.58760 | 20405 ft | 385 kts | 202° |
| 2026-05-01 11:34 | 48.82777 | 12.57046 | 19997 ft | 383 kts | 202° |
| 2026-05-01 11:35 | 48.80370 | 12.55340 | 19590 ft | 381 kts | 202° |
| 2026-05-01 11:35 | 48.77973 | 12.53644 | 19181 ft | 379 kts | 202° |
| 2026-05-01 11:35 | 48.75571 | 12.52025 | 18764 ft | 376 kts | 199° |
| 2026-05-01 11:35 | 48.73115 | 12.50673 | 18308 ft | 374 kts | 196° |
| 2026-05-01 11:36 | 48.70661 | 12.49417 | 17858 ft | 372 kts | 196° |
| 2026-05-01 11:36 | 48.68221 | 12.48144 | 17424 ft | 370 kts | 198° |
| 2026-05-01 11:36 | 48.65993 | 12.46194 | 16868 ft | 375 kts | 222° |
| 2026-05-01 11:36 | 48.64479 | 12.43007 | 16413 ft | 374 kts | 248° |
| 2026-05-01 11:37 | 48.63621 | 12.39330 | 16068 ft | 369 kts | 252° |
| 2026-05-01 11:37 | 48.62802 | 12.35678 | 15682 ft | 366 kts | 252° |
| 2026-05-01 11:37 | 48.61977 | 12.32041 | 15279 ft | 364 kts | 252° |
| 2026-05-01 11:37 | 48.61148 | 12.28437 | 14892 ft | 362 kts | 252° |
| 2026-05-01 11:38 | 48.60315 | 12.24858 | 14518 ft | 360 kts | 252° |
| 2026-05-01 11:38 | 48.59484 | 12.21308 | 14154 ft | 357 kts | 251° |
| 2026-05-01 11:38 | 48.58657 | 12.17794 | 13768 ft | 354 kts | 251° |
| 2026-05-01 11:38 | 48.57834 | 12.14311 | 13361 ft | 351 kts | 251° |
| 2026-05-01 11:39 | 48.57012 | 12.10842 | 12949 ft | 350 kts | 251° |
| 2026-05-01 11:39 | 48.56194 | 12.07396 | 12561 ft | 347 kts | 251° |
| 2026-05-01 11:39 | 48.55379 | 12.03968 | 12147 ft | 346 kts | 251° |
| 2026-05-01 11:39 | 48.54565 | 12.00553 | 11752 ft | 345 kts | 250° |
| 2026-05-01 11:40 | 48.53766 | 11.97203 | 11605 ft | 335 kts | 250° |
| 2026-05-01 11:40 | 48.52987 | 11.93950 | 11531 ft | 324 kts | 250° |
| 2026-05-01 11:40 | 48.52232 | 11.90800 | 11379 ft | 317 kts | 250° |
| 2026-05-01 11:40 | 48.51488 | 11.87692 | 11073 ft | 315 kts | 250° |
| 2026-05-01 11:41 | 48.50743 | 11.84589 | 10764 ft | 313 kts | 250° |
| 2026-05-01 11:41 | 48.50007 | 11.81525 | 10485 ft | 311 kts | 250° |
| 2026-05-01 11:41 | 48.49267 | 11.78448 | 10229 ft | 308 kts | 250° |
| 2026-05-01 11:41 | 48.48549 | 11.75464 | 9833 ft | 303 kts | 249° |
| 2026-05-01 11:42 | 48.47834 | 11.72495 | 9557 ft | 296 kts | 249° |
| 2026-05-01 11:42 | 48.47138 | 11.69615 | 9398 ft | 290 kts | 249° |
| 2026-05-01 11:42 | 48.46453 | 11.66785 | 8973 ft | 288 kts | 249° |
| 2026-05-01 11:42 | 48.45755 | 11.63907 | 8280 ft | 296 kts | 248° |
| 2026-05-01 11:43 | 48.45044 | 11.61011 | 7867 ft | 291 kts | 249° |
| 2026-05-01 11:43 | 48.44360 | 11.58234 | 7754 ft | 277 kts | 248° |
| 2026-05-01 11:43 | 48.43712 | 11.55567 | 7606 ft | 266 kts | 249° |
| 2026-05-01 11:44 | 48.42469 | 11.50377 | 6994 ft | 260 kts | 248° |
| 2026-05-01 11:44 | 48.41854 | 11.47844 | 6760 ft | 256 kts | 247° |
| 2026-05-01 11:44 | 48.41260 | 11.45312 | 6413 ft | 255 kts | 249° |
| 2026-05-01 11:44 | 48.40667 | 11.42868 | 6308 ft | 243 kts | 248° |
| 2026-05-01 11:45 | 48.40108 | 11.40487 | 6066 ft | 237 kts | 247° |
| 2026-05-01 11:45 | 48.39260 | 11.38449 | 5878 ft | 223 kts | 214° |
| 2026-05-01 11:45 | 48.37941 | 11.37660 | 5872 ft | 193 kts | 176° |
| 2026-05-01 11:45 | 48.36730 | 11.38200 | 5867 ft | 182 kts | 138° |
| 2026-05-01 11:46 | 48.35972 | 11.39735 | 5849 ft | 189 kts | 117° |
| 2026-05-01 11:46 | 48.35364 | 11.41517 | 5740 ft | 194 kts | 116° |
| 2026-05-01 11:46 | 48.34756 | 11.43311 | 5657 ft | 192 kts | 116° |
| 2026-05-01 11:46 | 48.34354 | 11.44512 | 5551 ft | 194 kts | 115° |
| 2026-05-01 11:47 | 48.33921 | 11.46344 | 5413 ft | 184 kts | 90° |
| 2026-05-01 11:47 | 48.34351 | 11.48115 | 5257 ft | 179 kts | 68° |
| 2026-05-01 11:47 | 48.34532 | 11.49906 | 5025 ft | 175 kts | 99° |
| 2026-05-01 11:47 | 48.34458 | 11.51736 | 4802 ft | 175 kts | 89° |
| 2026-05-01 11:48 | 48.34546 | 11.53582 | 4558 ft | 178 kts | 86° |
| 2026-05-01 11:48 | 48.34691 | 11.55435 | 4299 ft | 178 kts | 84° |
| 2026-05-01 11:48 | 48.34821 | 11.57297 | 4052 ft | 178 kts | 85° |
| 2026-05-01 11:48 | 48.34958 | 11.59140 | 3847 ft | 178 kts | 84° |
| 2026-05-01 11:49 | 48.35091 | 11.60970 | 3626 ft | 173 kts | 86° |
| 2026-05-01 11:49 | 48.35220 | 11.62777 | 3385 ft | 174 kts | 76° |
| 2026-05-01 11:49 | 48.35677 | 11.64446 | 3144 ft | 168 kts | 76° |
| 2026-05-01 11:49 | 48.35562 | 11.66113 | 2984 ft | 158 kts | 107° |
| 2026-05-01 11:50 | 48.35432 | 11.67721 | 2744 ft | 150 kts | 76° |
| 2026-05-01 11:50 | 48.35700 | 11.69181 | 2520 ft | 138 kts | 83° |
| 2026-05-01 11:50 | 48.35809 | 11.70555 | 2307 ft | 132 kts | 85° |
| 2026-05-01 11:50 | 48.35910 | 11.71905 | 2147 ft | 132 kts | 83° |
| 2026-05-01 11:51 | 48.36013 | 11.73290 | 2006 ft | 137 kts | 83° |
| 2026-05-01 11:51 | 48.36126 | 11.74745 | 1811 ft | 140 kts | 82° |
| 2026-05-01 11:51 | 48.36228 | 11.76164 | 1588 ft | 135 kts | 84° |
| 2026-05-01 11:51 | 48.36333 | 11.77510 | 1486 ft | 119 kts | 84° |
| 2026-05-01 11:52 | 48.36409 | 11.78481 | 1484 ft | 63 kts | 84° |
| 2026-05-01 11:52 | 48.36382 | 11.78813 | 1477 ft | 25 kts | 110° |
| 2026-05-01 11:52 | 48.36326 | 11.79016 | 1480 ft | 20 kts | 114° |
| 2026-05-01 11:52 | 48.36284 | 11.79162 | 1482 ft | 15 kts | 112° |
| 2026-05-01 11:53 | 48.36236 | 11.79264 | 1482 ft | 12 kts | 164° |
| 2026-05-01 11:53 | 48.36195 | 11.79218 | 1473 ft | 7 kts | 255° |
| 2026-05-01 11:53 | 48.36188 | 11.79137 | 1484 ft | 9 kts | 263° |
| 2026-05-01 11:53 | 48.36181 | 11.79045 | 1484 ft | 9 kts | 263° |
| 2026-05-01 11:54 | 48.36173 | 11.78939 | 1480 ft | 11 kts | 263° |
| 2026-05-01 11:54 | 48.36164 | 11.78826 | 1472 ft | 11 kts | 263° |
| 2026-05-01 11:54 | 48.36155 | 11.78708 | 1483 ft | 13 kts | 263° |
| 2026-05-01 11:54 | 48.36144 | 11.78568 | 1484 ft | 14 kts | 263° |
| 2026-05-01 11:55 | 48.36134 | 11.78430 | 1472 ft | 13 kts | 263° |
| 2026-05-01 11:55 | 48.36123 | 11.78298 | 1480 ft | 13 kts | 263° |
| 2026-05-01 11:55 | 48.36113 | 11.78167 | 1484 ft | 13 kts | 263° |
| 2026-05-01 11:55 | 48.36102 | 11.78016 | 1476 ft | 16 kts | 263° |
| 2026-05-01 11:56 | 48.36089 | 11.77854 | 1479 ft | 15 kts | 263° |
| 2026-05-01 11:56 | 48.36080 | 11.77735 | 1484 ft | 7 kts | 263° |
| 2026-05-01 11:56 | 48.36060 | 11.77669 | 1480 ft | 7 kts | 210° |
| 2026-05-01 11:56 | 48.36028 | 11.77666 | 1480 ft | 0 kts | 174° |
| 2026-05-01 11:57 | 48.36027 | 11.77666 | 1480 ft | 1 kts | 174° |
| 2026-05-01 11:57 | 48.36010 | 11.77668 | 1482 ft | 4 kts | 174° |
| 2026-05-01 11:57 | 48.35969 | 11.77675 | 1478 ft | 7 kts | 173° |
| 2026-05-01 11:57 | 48.35924 | 11.77683 | 1473 ft | 7 kts | 173° |
| 2026-05-01 11:58 | 48.35880 | 11.77690 | 1484 ft | 6 kts | 173° |
| 2026-05-01 11:58 | 48.35842 | 11.77697 | 1484 ft | 4 kts | 173° |
| 2026-05-01 11:58 | 48.35838 | 11.77698 | 1484 ft | 0 kts | 173° |
| 2026-05-01 11:59 | 48.35833 | 11.77699 | 1484 ft | 2 kts | 173° |
| 2026-05-01 11:59 | 48.35802 | 11.77704 | 1479 ft | 6 kts | 173° |
| 2026-05-01 11:59 | 48.35755 | 11.77713 | 1480 ft | 7 kts | 173° |
| 2026-05-01 12:00 | 48.35659 | 11.77730 | 1484 ft | 7 kts | 174° |
| 2026-05-01 12:00 | 48.35612 | 11.77737 | 1484 ft | 7 kts | 174° |
| 2026-05-01 12:00 | 48.35463 | 11.77763 | 1482 ft | 13 kts | 173° |
| 2026-05-01 12:01 | 48.35373 | 11.77779 | 1480 ft | 13 kts | 173° |
| 2026-05-01 12:01 | 48.35285 | 11.77793 | 1471 ft | 13 kts | 174° |
| 2026-05-01 12:01 | 48.35201 | 11.77818 | 1476 ft | 12 kts | 146° |
| 2026-05-01 12:01 | 48.35186 | 11.77935 | 1472 ft | 12 kts | 84° |
| 2026-05-01 12:02 | 48.35195 | 11.78058 | 1481 ft | 12 kts | 83° |
| 2026-05-01 12:02 | 48.35169 | 11.78155 | 1484 ft | 11 kts | 152° |
| 2026-05-01 12:02 | 48.35109 | 11.78176 | 1480 ft | 7 kts | 171° |
| 2026-05-01 12:02 | 48.35061 | 11.78185 | 1481 ft | 7 kts | 172° |
| 2026-05-01 12:03 | 48.35013 | 11.78193 | 1475 ft | 7 kts | 174° |
| 2026-05-01 12:03 | 48.34967 | 11.78201 | 1475 ft | 7 kts | 173° |
| 2026-05-01 12:03 | 48.34940 | 11.78250 | 1477 ft | 7 kts | 95° |
| 2026-05-01 12:03 | 48.34944 | 11.78319 | 1482 ft | 7 kts | 83° |
| 2026-05-01 12:04 | 48.34947 | 11.78362 | 1484 ft | 3 kts | 83° |
| 2026-05-01 12:04 | 48.34948 | 11.78370 | 1484 ft | 0 kts | 83° |